createdAt,value
2018-02-22T00:00:05.179Z,0
2018-02-22T00:05:03.384Z,0
2018-02-22T00:10:03.023Z,0
2018-02-22T00:15:02.494Z,0
2018-02-22T00:20:02.964Z,0
2018-02-22T00:25:03.462Z,0
2018-02-22T00:30:02.881Z,0
2018-02-22T00:35:03.369Z,0
2018-02-22T00:40:02.875Z,1
2018-02-22T00:45:03.322Z,1
2018-02-22T00:50:02.862Z,0
2018-02-22T00:55:03.377Z,0
2018-02-22T01:00:02.820Z,1
2018-02-22T01:05:03.015Z,1
2018-02-22T01:10:02.484Z,1
2018-02-22T01:15:02.910Z,1
2018-02-22T01:20:03.405Z,1
2018-02-22T01:25:02.824Z,0
2018-02-22T01:30:03.310Z,1
2018-02-22T01:35:02.824Z,0
2018-02-22T01:40:03.320Z,1
2018-02-22T01:45:02.705Z,1
2018-02-22T01:50:03.190Z,1
2018-02-22T01:55:02.677Z,1
2018-02-22T02:00:03.224Z,1
2018-02-22T02:05:02.704Z,1
2018-02-22T02:10:03.344Z,1
2018-02-22T02:15:02.866Z,1
2018-02-22T02:20:03.359Z,1
2018-02-22T02:25:02.742Z,1
2018-02-22T02:30:03.240Z,1
2018-02-22T02:35:02.657Z,1
2018-02-22T02:40:03.168Z,1
2018-02-22T02:45:02.579Z,1
2018-02-22T02:50:03.058Z,1
2018-02-22T02:55:02.503Z,1
2018-02-22T03:00:02.636Z,1
2018-02-22T03:05:03.146Z,1
2018-02-22T03:10:02.654Z,1
2018-02-22T03:15:03.111Z,1
2018-02-22T03:20:02.579Z,1
2018-02-22T03:25:03.063Z,1
2018-02-22T03:30:02.545Z,1
2018-02-22T03:35:03.109Z,1
2018-02-22T03:40:02.619Z,1
2018-02-22T03:45:03.104Z,1
2018-02-22T03:50:02.530Z,1
2018-02-22T03:55:03.106Z,1
2018-02-22T04:00:02.608Z,1
2018-02-22T04:05:03.044Z,1
2018-02-22T04:10:02.638Z,1
2018-02-22T04:15:03.032Z,1
2018-02-22T04:20:03.451Z,1
2018-02-22T04:25:02.872Z,1
2018-02-22T04:30:03.338Z,1
2018-02-22T04:35:02.770Z,1
2018-02-22T04:40:03.264Z,1
2018-02-22T04:45:02.710Z,1
2018-02-22T04:50:03.285Z,1
2018-02-22T04:55:02.701Z,1
2018-02-22T05:00:03.199Z,1
2018-02-22T05:05:02.604Z,1
2018-02-22T05:10:03.177Z,1
2018-02-22T05:15:02.595Z,1
2018-02-22T05:20:03.113Z,1
2018-02-22T05:25:03.520Z,1
2018-02-22T05:30:02.537Z,1
2018-02-22T05:35:02.992Z,1
2018-02-22T05:40:03.429Z,1
2018-02-22T05:45:02.926Z,1
2018-02-22T05:50:03.362Z,1
2018-02-22T05:55:02.728Z,1
2018-02-22T06:00:03.192Z,2
2018-02-22T06:05:02.646Z,5
2018-02-22T06:10:03.100Z,11
2018-02-22T06:15:02.578Z,22
2018-02-22T06:20:03.296Z,39
2018-02-22T06:25:02.789Z,56
2018-02-22T06:30:03.235Z,72
2018-02-22T06:35:02.712Z,100
2018-02-22T06:40:03.216Z,269
2018-02-22T06:45:02.959Z,363
2018-02-22T06:50:02.487Z,471
2018-02-22T06:55:02.927Z,584
2018-02-22T07:00:03.378Z,692
2018-02-22T07:05:02.939Z,798
2018-02-22T07:10:03.455Z,850
2018-02-22T07:15:02.975Z,939
2018-02-22T07:20:03.017Z,1000
2018-02-22T07:25:02.473Z,1000
2018-02-22T07:30:02.899Z,1000
2018-02-22T07:35:03.422Z,1000
2018-02-22T07:40:03.051Z,1000
2018-02-22T07:45:02.620Z,1000
2018-02-22T07:50:03.176Z,1000
2018-02-22T07:55:02.559Z,2000
2018-02-22T08:00:03.039Z,2000
2018-02-22T08:05:02.764Z,2000
2018-02-22T08:10:03.349Z,2000
2018-02-22T08:15:02.794Z,2000
2018-02-22T08:20:03.299Z,3000
2018-02-22T08:25:03.112Z,20000
2018-02-22T08:30:02.724Z,22000
2018-02-22T08:35:03.263Z,22000
2018-02-22T08:40:02.796Z,23000
2018-02-22T08:45:03.284Z,24000
2018-02-22T08:50:02.769Z,25000
2018-02-22T08:55:03.256Z,26000
2018-02-22T09:00:02.728Z,27000
2018-02-22T09:05:03.194Z,28000
2018-02-22T09:10:02.655Z,28000
2018-02-22T09:15:03.158Z,29000
2018-02-22T09:20:02.654Z,30000
2018-02-22T09:25:03.106Z,31000
2018-02-22T09:30:02.584Z,31000
2018-02-22T09:35:03.064Z,32000
2018-02-22T09:40:02.530Z,32000
2018-02-22T09:45:02.985Z,33000
2018-02-22T09:50:02.507Z,33000
2018-02-22T09:55:02.966Z,34000
2018-02-22T10:00:03.385Z,34000
2018-02-22T10:05:02.787Z,35000
2018-02-22T10:10:03.240Z,36000
2018-02-22T10:15:02.638Z,36000
2018-02-22T10:20:03.256Z,36000
2018-02-22T10:25:02.685Z,36000
2018-02-22T10:30:03.113Z,36000
2018-02-22T10:35:02.618Z,36000
2018-02-22T10:40:03.312Z,37000
2018-02-22T10:45:02.896Z,37000
2018-02-22T10:50:03.523Z,35000
2018-02-22T10:55:02.997Z,38000
2018-02-22T11:00:02.483Z,38000
2018-02-22T11:05:02.931Z,38000
2018-02-22T11:10:03.477Z,38000
2018-02-22T11:15:02.933Z,38000
2018-02-22T11:20:03.357Z,36000
2018-02-22T11:25:02.747Z,37000
2018-02-22T11:30:03.183Z,37000
2018-02-22T11:35:02.641Z,39000
2018-02-22T11:40:03.133Z,38000
2018-02-22T11:45:02.559Z,38000
2018-02-22T11:50:03.014Z,33000
2018-02-22T11:55:03.420Z,32000
2018-02-22T12:00:02.889Z,29000
2018-02-22T12:05:03.373Z,14000
2018-02-22T12:10:02.822Z,34000
2018-02-22T12:15:03.290Z,24000
2018-02-22T12:20:02.796Z,21000
2018-02-22T12:25:03.267Z,21000
2018-02-22T12:30:02.806Z,20000
2018-02-22T12:35:03.275Z,22000
2018-02-22T12:40:02.756Z,34000
2018-02-22T12:45:03.142Z,28000
2018-02-22T12:50:02.628Z,34000
2018-02-22T12:55:03.158Z,33000
2018-02-22T13:00:02.783Z,32000
2018-02-22T13:05:03.265Z,32000
2018-02-22T13:10:02.792Z,28000
2018-02-22T13:15:02.653Z,23000
2018-02-22T13:20:03.184Z,28000
2018-02-22T13:25:02.589Z,30000
2018-02-22T13:30:03.435Z,29000
2018-02-22T13:35:02.990Z,28000
2018-02-22T13:40:02.491Z,29000
2018-02-22T13:45:03.046Z,28000
2018-02-22T13:50:02.538Z,20000
2018-02-22T13:55:03.005Z,20000
2018-02-22T14:00:02.551Z,23000
2018-02-22T14:05:03.038Z,17000
2018-02-22T14:10:02.570Z,17000
2018-02-22T14:15:03.033Z,16000
2018-02-22T14:20:02.559Z,23000
2018-02-22T14:25:03.071Z,23000
2018-02-22T14:30:02.657Z,21000
2018-02-22T14:35:03.299Z,10000
2018-02-22T14:40:02.827Z,11000
2018-02-22T14:45:03.303Z,19000
2018-02-22T14:50:02.843Z,13000
2018-02-22T14:55:03.299Z,16000
2018-02-22T15:00:02.777Z,17000
2018-02-22T15:05:03.314Z,14000
2018-02-22T15:10:02.820Z,15000
2018-02-22T15:15:03.463Z,11000
2018-02-22T15:20:02.998Z,10000
2018-02-22T15:25:03.460Z,15000
2018-02-22T15:30:02.889Z,13000
2018-02-22T15:35:03.455Z,10000
2018-02-22T15:40:02.918Z,7000
2018-02-22T15:45:03.424Z,9000
2018-02-22T15:50:02.795Z,10000
2018-02-22T15:55:03.396Z,12000
2018-02-22T16:00:02.846Z,6000
2018-02-22T16:05:03.294Z,9000
2018-02-22T16:10:02.860Z,4000
2018-02-22T16:15:02.492Z,1000
2018-02-22T16:20:03.071Z,1000
2018-02-22T16:25:02.551Z,1000
2018-02-22T16:30:03.008Z,1000
2018-02-22T16:35:02.620Z,1000
2018-02-22T16:40:03.385Z,788
2018-02-22T16:45:02.821Z,669
2018-02-22T16:50:03.422Z,540
2018-02-22T16:55:02.902Z,414
2018-02-22T17:00:03.402Z,295
2018-02-22T17:05:02.831Z,166
2018-02-22T17:10:02.455Z,80
2018-02-22T17:15:02.880Z,64
2018-02-22T17:20:03.334Z,40
2018-02-22T17:25:02.764Z,23
2018-02-22T17:30:03.376Z,14
2018-02-22T17:35:02.868Z,7
2018-02-22T17:40:03.433Z,3
2018-02-22T17:45:02.878Z,1
2018-02-22T17:50:03.369Z,1
2018-02-22T17:55:02.841Z,0
2018-02-22T18:00:03.323Z,1
2018-02-22T18:05:02.803Z,0
2018-02-22T18:10:03.343Z,0
2018-02-22T18:15:02.816Z,0
2018-02-22T18:20:03.553Z,1
2018-02-22T18:25:03.025Z,0
2018-02-22T18:30:02.451Z,0
2018-02-22T18:35:02.911Z,0
2018-02-22T18:40:02.514Z,0
2018-02-22T18:45:03.130Z,0
2018-02-22T18:50:02.706Z,0
2018-02-22T18:55:03.213Z,0
2018-02-22T19:00:02.672Z,0
2018-02-22T19:05:03.120Z,1
2018-02-22T19:10:02.681Z,0
2018-02-22T19:15:03.157Z,0
2018-02-22T19:20:02.698Z,0
2018-02-22T19:25:03.199Z,0
2018-02-22T19:30:02.727Z,0
2018-02-22T19:35:03.318Z,0
2018-02-22T19:40:02.898Z,0
2018-02-22T19:45:03.435Z,0
2018-02-22T19:50:02.862Z,0
2018-02-22T19:55:03.479Z,0
2018-02-22T20:00:02.911Z,0
2018-02-22T20:05:03.692Z,0
2018-02-22T20:10:03.242Z,0
2018-02-22T20:15:02.770Z,0
2018-02-22T20:20:03.321Z,1
2018-02-22T20:25:02.835Z,0
2018-02-22T20:30:03.363Z,0
2018-02-22T20:35:02.922Z,0
2018-02-22T20:40:02.561Z,0
2018-02-22T20:45:03.095Z,0
2018-02-22T20:50:02.811Z,0
2018-02-22T20:55:03.292Z,0
2018-02-22T21:00:02.828Z,0
2018-02-22T21:05:03.325Z,0
2018-02-22T21:10:02.828Z,0
2018-02-22T21:15:03.263Z,0
2018-02-22T21:20:02.809Z,0
2018-02-22T21:25:03.435Z,0
2018-02-22T21:30:02.845Z,0
2018-02-22T21:35:03.318Z,0
2018-02-22T21:40:02.864Z,0
2018-02-22T21:45:02.819Z,0
2018-02-22T21:50:03.484Z,0
2018-02-22T21:55:02.872Z,0
2018-02-22T22:00:03.434Z,0
2018-02-22T22:05:02.876Z,1
2018-02-22T22:10:02.489Z,1
2018-02-22T22:15:02.931Z,0
2018-02-22T22:20:03.430Z,0
2018-02-22T22:25:02.910Z,1
2018-02-22T22:30:02.484Z,0
2018-02-22T22:35:02.959Z,0
2018-02-22T22:40:02.543Z,0
2018-02-22T22:45:02.924Z,0
2018-02-22T22:50:03.391Z,0
2018-02-22T22:55:02.780Z,1
2018-02-22T23:00:03.226Z,1
2018-02-22T23:05:03.383Z,1
2018-02-22T23:10:02.905Z,0
2018-02-22T23:15:02.464Z,1
2018-02-22T23:20:03.138Z,1
2018-02-22T23:25:02.543Z,1
2018-02-22T23:30:02.704Z,1
2018-02-22T23:35:03.209Z,0
2018-02-22T23:40:02.795Z,1
2018-02-22T23:45:03.506Z,1
2018-02-22T23:50:02.959Z,1
2018-02-22T23:55:03.394Z,1
